sensor_id;sensor_type;location;lat;lon;timestamp;pressure;altitude;pressure_sealevel;temperature;humidity
61963;BME280;47927;42.646;23.096;2023-07-16T00:01:55;92476.38;;;22.58;63.32
61963;BME280;47927;42.646;23.096;2023-07-16T00:04:21;92476.88;;;22.65;63.26
61963;BME280;47927;42.646;23.096;2023-07-16T00:06:47;92476.66;;;22.72;62.83
61963;BME280;47927;42.646;23.096;2023-07-16T00:09:12;92474.84;;;22.69;62.74
61963;BME280;47927;42.646;23.096;2023-07-16T00:11:38;92473.91;;;22.76;62.73
61963;BME280;47927;42.646;23.096;2023-07-16T00:14:03;92472.72;;;22.77;62.71
61963;BME280;47927;42.646;23.096;2023-07-16T00:16:29;92457.44;;;22.68;62.55
61963;BME280;47927;42.646;23.096;2023-07-16T00:18:54;92475.50;;;22.73;62.85
61963;BME280;47927;42.646;23.096;2023-07-16T00:21:20;92469.16;;;22.58;63.61
61963;BME280;47927;42.646;23.096;2023-07-16T00:23:46;92461.63;;;22.44;64.31
61963;BME280;47927;42.646;23.096;2023-07-16T00:26:12;92460.88;;;22.43;64.60
61963;BME280;47927;42.646;23.096;2023-07-16T00:28:38;92469.91;;;22.46;64.47
61963;BME280;47927;42.646;23.096;2023-07-16T00:31:04;92455.88;;;22.45;64.26
61963;BME280;47927;42.646;23.096;2023-07-16T00:33:30;92466.63;;;22.42;64.65
61963;BME280;47927;42.646;23.096;2023-07-16T00:35:56;92462.03;;;22.42;64.56
61963;BME280;47927;42.646;23.096;2023-07-16T00:38:22;92463.13;;;22.32;64.86
61963;BME280;47927;42.646;23.096;2023-07-16T00:40:49;92463.63;;;22.52;64.05
61963;BME280;47927;42.646;23.096;2023-07-16T00:43:15;92467.25;;;22.59;64.04
61963;BME280;47927;42.646;23.096;2023-07-16T00:45:41;92467.66;;;22.57;63.88
61963;BME280;47927;42.646;23.096;2023-07-16T00:48:07;92468.72;;;22.60;63.50
61963;BME280;47927;42.646;23.096;2023-07-16T00:50:34;92463.00;;;22.61;63.31
61963;BME280;47927;42.646;23.096;2023-07-16T00:53:05;92468.06;;;22.68;62.82
61963;BME280;47927;42.646;23.096;2023-07-16T00:55:32;92465.94;;;22.63;62.77
61963;BME280;47927;42.646;23.096;2023-07-16T00:58:02;92468.72;;;22.60;63.26
61963;BME280;47927;42.646;23.096;2023-07-16T01:00:34;92470.88;;;22.52;63.57
61963;BME280;47927;42.646;23.096;2023-07-16T01:03:04;92465.84;;;22.54;63.41
61963;BME280;47927;42.646;23.096;2023-07-16T01:05:47;92461.19;;;22.58;63.15
61963;BME280;47927;42.646;23.096;2023-07-16T01:08:24;92445.16;;;22.36;64.02
61963;BME280;47927;42.646;23.096;2023-07-16T01:10:52;92455.13;;;22.45;63.76
61963;BME280;47927;42.646;23.096;2023-07-16T01:13:19;92454.84;;;22.43;64.15
61963;BME280;47927;42.646;23.096;2023-07-16T01:15:45;92447.50;;;22.47;64.17
61963;BME280;47927;42.646;23.096;2023-07-16T01:18:11;92454.00;;;22.46;64.07
61963;BME280;47927;42.646;23.096;2023-07-16T01:20:36;92454.41;;;22.44;64.05
61963;BME280;47927;42.646;23.096;2023-07-16T01:23:19;92457.03;;;22.57;64.11
61963;BME280;47927;42.646;23.096;2023-07-16T01:31:40;92453.44;;;22.51;63.71
61963;BME280;47927;42.646;23.096;2023-07-16T01:34:06;92452.69;;;22.50;63.39
61963;BME280;47927;42.646;23.096;2023-07-16T01:36:34;92457.47;;;22.56;63.68
61963;BME280;47927;42.646;23.096;2023-07-16T01:39:01;92454.16;;;22.51;63.49
61963;BME280;47927;42.646;23.096;2023-07-16T01:41:27;92448.03;;;22.42;63.61
61963;BME280;47927;42.646;23.096;2023-07-16T01:43:53;92449.13;;;22.32;64.22
61963;BME280;47927;42.646;23.096;2023-07-16T01:46:19;92447.97;;;22.20;64.60
61963;BME280;47927;42.646;23.096;2023-07-16T01:48:45;92454.19;;;22.13;65.13
61963;BME280;47927;42.646;23.096;2023-07-16T01:51:10;92451.31;;;21.95;65.91
61963;BME280;47927;42.646;23.096;2023-07-16T01:53:40;92454.28;;;22.10;65.68
61963;BME280;47927;42.646;23.096;2023-07-16T01:56:05;92452.69;;;22.12;65.22
61963;BME280;47927;42.646;23.096;2023-07-16T01:58:31;92461.84;;;22.24;65.05
61963;BME280;47927;42.646;23.096;2023-07-16T02:00:57;92463.97;;;22.29;64.00
61963;BME280;47927;42.646;23.096;2023-07-16T02:03:22;92456.75;;;22.29;63.20
61963;BME280;47927;42.646;23.096;2023-07-16T02:05:48;92456.31;;;22.18;64.23
61963;BME280;47927;42.646;23.096;2023-07-16T02:08:14;92452.41;;;22.23;64.05
61963;BME280;47927;42.646;23.096;2023-07-16T02:10:39;92447.97;;;22.20;64.09
61963;BME280;47927;42.646;23.096;2023-07-16T02:13:05;92451.75;;;21.93;65.46
61963;BME280;47927;42.646;23.096;2023-07-16T02:15:30;92447.81;;;21.98;65.59
61963;BME280;47927;42.646;23.096;2023-07-16T02:17:56;92445.69;;;22.05;65.26
61963;BME280;47927;42.646;23.096;2023-07-16T02:20:22;92450.59;;;22.20;64.83
61963;BME280;47927;42.646;23.096;2023-07-16T02:22:47;92447.44;;;22.25;64.83
61963;BME280;47927;42.646;23.096;2023-07-16T02:25:13;92446.13;;;22.29;64.37
61963;BME280;47927;42.646;23.096;2023-07-16T02:27:38;92452.91;;;22.30;63.78
61963;BME280;47927;42.646;23.096;2023-07-16T02:30:04;92449.31;;;22.24;64.10
61963;BME280;47927;42.646;23.096;2023-07-16T02:32:32;92456.53;;;22.11;64.98
61963;BME280;47927;42.646;23.096;2023-07-16T02:35:00;92459.50;;;22.13;65.15
61963;BME280;47927;42.646;23.096;2023-07-16T02:37:27;92454.94;;;22.26;64.41
61963;BME280;47927;42.646;23.096;2023-07-16T02:40:11;92446.38;;;22.22;62.77
61963;BME280;47927;42.646;23.096;2023-07-16T02:42:37;92464.28;;;22.18;62.61
61963;BME280;47927;42.646;23.096;2023-07-16T02:45:03;92457.03;;;22.06;63.22
61963;BME280;47927;42.646;23.096;2023-07-16T02:47:28;92463.84;;;22.07;63.21
61963;BME280;47927;42.646;23.096;2023-07-16T02:49:54;92472.97;;;22.06;63.23
61963;BME280;47927;42.646;23.096;2023-07-16T02:52:19;92465.44;;;22.04;63.07
61963;BME280;47927;42.646;23.096;2023-07-16T02:54:45;92465.19;;;21.86;64.56
61963;BME280;47927;42.646;23.096;2023-07-16T02:57:29;92466.25;;;21.76;65.13
61963;BME280;47927;42.646;23.096;2023-07-16T02:59:55;92467.09;;;21.73;65.52
61963;BME280;47927;42.646;23.096;2023-07-16T03:02:20;92467.44;;;21.88;65.16
61963;BME280;47927;42.646;23.096;2023-07-16T03:04:46;92464.06;;;22.00;64.62
61963;BME280;47927;42.646;23.096;2023-07-16T03:07:12;92468.06;;;21.92;64.95
61963;BME280;47927;42.646;23.096;2023-07-16T03:09:37;92468.41;;;21.94;64.75
61963;BME280;47927;42.646;23.096;2023-07-16T03:12:04;92462.66;;;21.82;65.37
61963;BME280;47927;42.646;23.096;2023-07-16T03:14:30;92465.13;;;21.90;65.12
61963;BME280;47927;42.646;23.096;2023-07-16T03:16:55;92467.78;;;21.90;65.36
61963;BME280;47927;42.646;23.096;2023-07-16T03:19:21;92465.75;;;21.81;65.26
61963;BME280;47927;42.646;23.096;2023-07-16T03:21:46;92462.59;;;21.15;67.95
61963;BME280;47927;42.646;23.096;2023-07-16T03:24:14;92465.66;;;21.43;67.48
61963;BME280;47927;42.646;23.096;2023-07-16T03:26:40;92456.91;;;21.71;66.45
61963;BME280;47927;42.646;23.096;2023-07-16T03:29:06;92465.53;;;22.01;65.29
61963;BME280;47927;42.646;23.096;2023-07-16T03:31:31;92469.91;;;22.20;64.25
61963;BME280;47927;42.646;23.096;2023-07-16T03:33:57;92468.63;;;22.12;64.86
61963;BME280;47927;42.646;23.096;2023-07-16T03:36:25;92471.72;;;22.11;65.28
61963;BME280;47927;42.646;23.096;2023-07-16T03:38:50;92470.41;;;22.02;66.08
61963;BME280;47927;42.646;23.096;2023-07-16T03:41:16;92467.47;;;22.13;65.84
61963;BME280;47927;42.646;23.096;2023-07-16T03:43:43;92470.84;;;22.14;66.59
61963;BME280;47927;42.646;23.096;2023-07-16T03:46:17;92473.81;;;22.54;65.30
61963;BME280;47927;42.646;23.096;2023-07-16T03:48:44;92469.81;;;22.84;63.87
61963;BME280;47927;42.646;23.096;2023-07-16T03:51:10;92473.50;;;23.12;62.48
61963;BME280;47927;42.646;23.096;2023-07-16T03:53:35;92477.69;;;23.23;62.94
61963;BME280;47927;42.646;23.096;2023-07-16T03:56:01;92480.81;;;23.43;62.51
61963;BME280;47927;42.646;23.096;2023-07-16T03:58:27;92481.84;;;23.67;62.24
61963;BME280;47927;42.646;23.096;2023-07-16T04:00:54;92480.22;;;23.83;61.24
61963;BME280;47927;42.646;23.096;2023-07-16T04:03:21;92488.19;;;24.14;60.81
61963;BME280;47927;42.646;23.096;2023-07-16T04:05:47;92491.28;;;24.44;59.79
61963;BME280;47927;42.646;23.096;2023-07-16T04:08:12;92494.16;;;24.59;58.38
61963;BME280;47927;42.646;23.096;2023-07-16T04:10:38;92473.34;;;24.85;58.02
61963;BME280;47927;42.646;23.096;2023-07-16T04:13:04;92491.63;;;25.32;57.12
61963;BME280;47927;42.646;23.096;2023-07-16T04:15:29;92496.75;;;25.63;57.03
61963;BME280;47927;42.646;23.096;2023-07-16T04:17:55;92490.97;;;25.92;56.48
61963;BME280;47927;42.646;23.096;2023-07-16T04:20:20;92490.66;;;26.42;55.78
61963;BME280;47927;42.646;23.096;2023-07-16T04:22:46;92495.16;;;26.93;53.76
61963;BME280;47927;42.646;23.096;2023-07-16T04:25:11;92495.59;;;27.25;53.20
61963;BME280;47927;42.646;23.096;2023-07-16T04:27:37;92499.66;;;27.89;51.78
61963;BME280;47927;42.646;23.096;2023-07-16T04:30:03;92503.53;;;28.82;49.44
61963;BME280;47927;42.646;23.096;2023-07-16T04:32:29;92504.09;;;29.94;46.61
61963;BME280;47927;42.646;23.096;2023-07-16T04:34:54;92504.16;;;31.01;42.79
61963;BME280;47927;42.646;23.096;2023-07-16T04:37:20;92512.34;;;32.11;40.59
61963;BME280;47927;42.646;23.096;2023-07-16T04:39:46;92517.94;;;32.92;39.62
61963;BME280;47927;42.646;23.096;2023-07-16T04:42:11;92518.56;;;33.90;36.58
61963;BME280;47927;42.646;23.096;2023-07-16T04:44:37;92519.06;;;34.90;34.37
61963;BME280;47927;42.646;23.096;2023-07-16T04:47:02;92524.31;;;35.32;34.03
61963;BME280;47927;42.646;23.096;2023-07-16T04:49:28;92521.94;;;35.66;32.88
61963;BME280;47927;42.646;23.096;2023-07-16T04:51:53;92523.78;;;35.77;33.12
61963;BME280;47927;42.646;23.096;2023-07-16T04:54:19;92530.00;;;35.91;32.73
61963;BME280;47927;42.646;23.096;2023-07-16T04:56:44;92532.94;;;35.55;33.01
61963;BME280;47927;42.646;23.096;2023-07-16T04:59:10;92536.59;;;35.33;33.86
61963;BME280;47927;42.646;23.096;2023-07-16T05:01:35;92539.41;;;34.42;35.73
61963;BME280;47927;42.646;23.096;2023-07-16T05:04:01;92535.97;;;34.00;36.90
61963;BME280;47927;42.646;23.096;2023-07-16T05:06:27;92535.72;;;33.51;37.53
61963;BME280;47927;42.646;23.096;2023-07-16T05:08:52;92536.00;;;33.36;37.47
61963;BME280;47927;42.646;23.096;2023-07-16T05:11:18;92529.91;;;33.25;37.86
61963;BME280;47927;42.646;23.096;2023-07-16T05:13:43;92537.53;;;33.21;38.58
61963;BME280;47927;42.646;23.096;2023-07-16T05:16:09;92530.16;;;33.27;38.41
61963;BME280;47927;42.646;23.096;2023-07-16T05:18:35;92527.34;;;33.49;37.82
61963;BME280;47927;42.646;23.096;2023-07-16T05:21:00;92538.47;;;33.93;37.27
61963;BME280;47927;42.646;23.096;2023-07-16T05:23:26;92531.91;;;34.24;35.87
61963;BME280;47927;42.646;23.096;2023-07-16T05:25:52;92531.91;;;34.84;35.36
61963;BME280;47927;42.646;23.096;2023-07-16T05:28:18;92527.72;;;35.95;34.08
61963;BME280;47927;42.646;23.096;2023-07-16T05:30:44;92540.78;;;37.99;30.51
61963;BME280;47927;42.646;23.096;2023-07-16T05:33:10;92543.56;;;39.69;27.99
61963;BME280;47927;42.646;23.096;2023-07-16T05:35:36;92547.56;;;41.65;25.67
61963;BME280;47927;42.646;23.096;2023-07-16T05:38:02;92543.91;;;42.51;24.25
61963;BME280;47927;42.646;23.096;2023-07-16T05:40:27;92552.97;;;42.87;23.71
61963;BME280;47927;42.646;23.096;2023-07-16T05:42:54;92542.88;;;43.84;22.68
61963;BME280;47927;42.646;23.096;2023-07-16T05:45:20;92553.25;;;45.31;20.98
61963;BME280;47927;42.646;23.096;2023-07-16T05:47:45;92551.81;;;46.17;20.03
61963;BME280;47927;42.646;23.096;2023-07-16T05:50:11;92553.19;;;46.88;19.03
61963;BME280;47927;42.646;23.096;2023-07-16T05:52:37;92561.00;;;46.51;18.91
61963;BME280;47927;42.646;23.096;2023-07-16T05:55:02;92561.09;;;46.72;19.16
61963;BME280;47927;42.646;23.096;2023-07-16T05:57:28;92556.84;;;48.10;17.53
61963;BME280;47927;42.646;23.096;2023-07-16T05:59:54;92561.25;;;48.36;16.66
61963;BME280;47927;42.646;23.096;2023-07-16T06:02:19;92566.38;;;48.19;17.30
61963;BME280;47927;42.646;23.096;2023-07-16T06:04:46;92568.03;;;48.80;17.05
61963;BME280;47927;42.646;23.096;2023-07-16T06:07:12;92575.03;;;48.93;16.63
61963;BME280;47927;42.646;23.096;2023-07-16T06:09:38;92566.50;;;49.73;15.99
61963;BME280;47927;42.646;23.096;2023-07-16T06:12:03;92580.16;;;50.21;15.82
61963;BME280;47927;42.646;23.096;2023-07-16T06:14:29;92575.56;;;50.00;15.87
61963;BME280;47927;42.646;23.096;2023-07-16T06:16:55;92571.41;;;49.02;15.51
61963;BME280;47927;42.646;23.096;2023-07-16T06:19:20;92572.50;;;48.62;15.78
61963;BME280;47927;42.646;23.096;2023-07-16T06:21:46;92575.84;;;48.72;16.38
61963;BME280;47927;42.646;23.096;2023-07-16T06:24:11;92578.84;;;49.96;15.79
61963;BME280;47927;42.646;23.096;2023-07-16T06:26:37;92572.81;;;49.88;14.57
61963;BME280;47927;42.646;23.096;2023-07-16T06:29:02;92579.94;;;50.42;14.15
61963;BME280;47927;42.646;23.096;2023-07-16T06:31:28;92574.16;;;50.12;14.26
61963;BME280;47927;42.646;23.096;2023-07-16T06:33:53;92578.09;;;50.47;14.50
61963;BME280;47927;42.646;23.096;2023-07-16T06:36:19;92573.75;;;50.04;15.16
61963;BME280;47927;42.646;23.096;2023-07-16T06:38:45;92565.50;;;50.57;14.92
61963;BME280;47927;42.646;23.096;2023-07-16T06:41:11;92561.75;;;50.92;14.22
61963;BME280;47927;42.646;23.096;2023-07-16T06:43:36;92562.16;;;51.42;14.07
61963;BME280;47927;42.646;23.096;2023-07-16T06:46:02;92559.31;;;51.12;14.00
61963;BME280;47927;42.646;23.096;2023-07-16T06:48:28;92562.06;;;51.26;13.78
61963;BME280;47927;42.646;23.096;2023-07-16T06:50:54;92556.16;;;51.61;13.69
61963;BME280;47927;42.646;23.096;2023-07-16T06:53:19;92564.78;;;51.97;14.21
61963;BME280;47927;42.646;23.096;2023-07-16T06:55:47;92562.22;;;51.71;13.84
61963;BME280;47927;42.646;23.096;2023-07-16T06:58:14;92563.53;;;50.99;13.88
61963;BME280;47927;42.646;23.096;2023-07-16T07:00:40;92567.22;;;50.37;15.00
61963;BME280;47927;42.646;23.096;2023-07-16T07:03:06;92573.28;;;50.22;14.39
61963;BME280;47927;42.646;23.096;2023-07-16T07:05:32;92562.41;;;49.75;14.58
61963;BME280;47927;42.646;23.096;2023-07-16T07:07:57;92564.59;;;49.03;15.34
61963;BME280;47927;42.646;23.096;2023-07-16T07:10:23;92562.38;;;50.12;14.85
61963;BME280;47927;42.646;23.096;2023-07-16T07:12:48;92562.13;;;49.82;14.37
61963;BME280;47927;42.646;23.096;2023-07-16T07:15:14;92553.78;;;50.20;14.52
61963;BME280;47927;42.646;23.096;2023-07-16T07:17:39;92560.13;;;50.34;14.63
61963;BME280;47927;42.646;23.096;2023-07-16T07:20:06;92564.22;;;50.86;14.27
61963;BME280;47927;42.646;23.096;2023-07-16T07:22:32;92551.88;;;50.36;14.66
61963;BME280;47927;42.646;23.096;2023-07-16T07:24:57;92563.72;;;50.11;15.18
61963;BME280;47927;42.646;23.096;2023-07-16T07:27:23;92560.63;;;50.44;14.07
61963;BME280;47927;42.646;23.096;2023-07-16T07:29:48;92552.19;;;50.68;13.75
61963;BME280;47927;42.646;23.096;2023-07-16T07:32:19;92554.63;;;50.61;14.23
61963;BME280;47927;42.646;23.096;2023-07-16T07:34:45;92557.25;;;50.46;14.69
61963;BME280;47927;42.646;23.096;2023-07-16T07:37:11;92555.97;;;50.60;13.54
61963;BME280;47927;42.646;23.096;2023-07-16T07:39:36;92551.69;;;49.08;15.70
61963;BME280;47927;42.646;23.096;2023-07-16T07:42:02;92558.41;;;48.81;14.88
61963;BME280;47927;42.646;23.096;2023-07-16T07:44:27;92554.47;;;48.49;15.65
61963;BME280;47927;42.646;23.096;2023-07-16T07:46:53;92558.69;;;48.86;15.46
61963;BME280;47927;42.646;23.096;2023-07-16T07:49:18;92560.13;;;49.10;15.08
61963;BME280;47927;42.646;23.096;2023-07-16T07:51:44;92560.06;;;49.83;14.48
61963;BME280;47927;42.646;23.096;2023-07-16T07:54:09;92551.75;;;49.57;14.21
61963;BME280;47927;42.646;23.096;2023-07-16T07:56:35;92548.63;;;48.22;15.91
61963;BME280;47927;42.646;23.096;2023-07-16T07:59:00;92550.28;;;48.15;15.71
61963;BME280;47927;42.646;23.096;2023-07-16T08:01:26;92556.22;;;48.45;15.19
61963;BME280;47927;42.646;23.096;2023-07-16T08:03:52;92547.94;;;48.45;15.97
61963;BME280;47927;42.646;23.096;2023-07-16T08:06:17;92544.97;;;48.52;16.36
61963;BME280;47927;42.646;23.096;2023-07-16T08:08:43;92548.91;;;48.84;14.88
61963;BME280;47927;42.646;23.096;2023-07-16T08:11:08;92556.03;;;48.64;15.01
61963;BME280;47927;42.646;23.096;2023-07-16T08:13:34;92551.69;;;48.49;14.97
61963;BME280;47927;42.646;23.096;2023-07-16T08:15:59;92548.41;;;48.29;15.67
61963;BME280;47927;42.646;23.096;2023-07-16T08:18:25;92547.34;;;48.46;15.66
61963;BME280;47927;42.646;23.096;2023-07-16T08:20:51;92554.38;;;48.14;16.64
61963;BME280;47927;42.646;23.096;2023-07-16T08:23:17;92543.94;;;48.24;15.68
61963;BME280;47927;42.646;23.096;2023-07-16T08:25:43;92546.41;;;48.65;16.02
61963;BME280;47927;42.646;23.096;2023-07-16T08:28:08;92557.78;;;48.36;15.96
61963;BME280;47927;42.646;23.096;2023-07-16T08:30:35;92549.47;;;48.36;15.72
61963;BME280;47927;42.646;23.096;2023-07-16T08:33:00;92554.09;;;48.10;16.05
61963;BME280;47927;42.646;23.096;2023-07-16T08:35:26;92554.06;;;47.98;15.96
61963;BME280;47927;42.646;23.096;2023-07-16T08:38:10;92548.72;;;47.14;16.68
61963;BME280;47927;42.646;23.096;2023-07-16T08:40:39;92547.81;;;47.43;17.71
61963;BME280;47927;42.646;23.096;2023-07-16T08:43:05;92521.81;;;47.24;16.80
61963;BME280;47927;42.646;23.096;2023-07-16T08:45:35;92537.91;;;47.49;16.53
61963;BME280;47927;42.646;23.096;2023-07-16T08:48:06;92552.41;;;46.66;18.01
61963;BME280;47927;42.646;23.096;2023-07-16T08:50:34;92542.28;;;45.89;18.21
61963;BME280;47927;42.646;23.096;2023-07-16T08:53:01;92534.28;;;46.12;18.22
61963;BME280;47927;42.646;23.096;2023-07-16T08:55:27;92543.16;;;45.82;18.19
61963;BME280;47927;42.646;23.096;2023-07-16T08:57:53;92544.44;;;45.32;18.14
61963;BME280;47927;42.646;23.096;2023-07-16T09:00:19;92539.34;;;45.48;18.45
61963;BME280;47927;42.646;23.096;2023-07-16T09:02:45;92549.06;;;45.39;19.15
61963;BME280;47927;42.646;23.096;2023-07-16T09:05:11;92544.34;;;44.93;18.12
61963;BME280;47927;42.646;23.096;2023-07-16T09:07:37;92537.69;;;44.32;19.45
61963;BME280;47927;42.646;23.096;2023-07-16T09:10:03;92527.22;;;44.75;19.14
61963;BME280;47927;42.646;23.096;2023-07-16T09:12:28;92539.84;;;44.24;19.28
61963;BME280;47927;42.646;23.096;2023-07-16T09:14:55;92538.00;;;43.65;19.97
61963;BME280;47927;42.646;23.096;2023-07-16T09:17:22;92525.63;;;43.21;22.26
61963;BME280;47927;42.646;23.096;2023-07-16T09:19:50;92523.91;;;43.09;21.18
61963;BME280;47927;42.646;23.096;2023-07-16T09:22:17;92535.84;;;43.90;19.60
61963;BME280;47927;42.646;23.096;2023-07-16T09:24:47;92532.63;;;44.29;19.69
61963;BME280;47927;42.646;23.096;2023-07-16T09:27:13;92529.16;;;44.65;20.11
61963;BME280;47927;42.646;23.096;2023-07-16T09:29:39;92536.34;;;44.78;20.92
61963;BME280;47927;42.646;23.096;2023-07-16T09:32:05;92531.47;;;44.59;18.87
61963;BME280;47927;42.646;23.096;2023-07-16T09:34:31;92536.59;;;44.35;19.48
61963;BME280;47927;42.646;23.096;2023-07-16T09:36:57;92519.13;;;42.92;20.01
61963;BME280;47927;42.646;23.096;2023-07-16T09:39:24;92532.97;;;43.19;21.54
61963;BME280;47927;42.646;23.096;2023-07-16T09:41:51;92527.06;;;42.55;21.16
61963;BME280;47927;42.646;23.096;2023-07-16T09:44:17;92538.69;;;42.88;21.74
61963;BME280;47927;42.646;23.096;2023-07-16T09:46:44;92533.03;;;42.36;21.22
61963;BME280;47927;42.646;23.096;2023-07-16T09:49:09;92512.94;;;42.66;20.11
61963;BME280;47927;42.646;23.096;2023-07-16T09:51:36;92521.63;;;42.97;20.06
61963;BME280;47927;42.646;23.096;2023-07-16T09:54:03;92521.28;;;43.18;20.59
61963;BME280;47927;42.646;23.096;2023-07-16T09:56:50;92524.25;;;43.47;20.06
61963;BME280;47927;42.646;23.096;2023-07-16T09:59:19;92520.31;;;42.31;20.92
61963;BME280;47927;42.646;23.096;2023-07-16T10:01:46;92520.13;;;41.25;21.60
61963;BME280;47927;42.646;23.096;2023-07-16T10:04:18;92510.53;;;40.78;24.17
61963;BME280;47927;42.646;23.096;2023-07-16T10:07:00;92513.06;;;40.53;23.76
61963;BME280;47927;42.646;23.096;2023-07-16T10:09:52;92509.97;;;40.49;24.90
61963;BME280;47927;42.646;23.096;2023-07-16T10:12:20;92500.47;;;41.19;23.12
61963;BME280;47927;42.646;23.096;2023-07-16T10:14:50;92507.19;;;41.81;23.26
61963;BME280;47927;42.646;23.096;2023-07-16T10:17:21;92502.94;;;42.28;23.19
61963;BME280;47927;42.646;23.096;2023-07-16T10:20:00;92508.19;;;42.67;22.88
61963;BME280;47927;42.646;23.096;2023-07-16T10:22:39;92504.06;;;41.93;23.17
61963;BME280;47927;42.646;23.096;2023-07-16T10:25:10;92505.66;;;41.55;24.82
61963;BME280;47927;42.646;23.096;2023-07-16T10:27:36;92497.06;;;41.66;23.57
61963;BME280;47927;42.646;23.096;2023-07-16T10:30:03;92499.09;;;41.58;23.76
61963;BME280;47927;42.646;23.096;2023-07-16T10:32:31;92495.44;;;41.63;23.85
61963;BME280;47927;42.646;23.096;2023-07-16T10:34:57;92477.91;;;42.07;24.45
61963;BME280;47927;42.646;23.096;2023-07-16T10:37:24;92506.25;;;42.27;23.56
61963;BME280;47927;42.646;23.096;2023-07-16T10:39:52;92503.69;;;42.29;23.79
61963;BME280;47927;42.646;23.096;2023-07-16T10:42:19;92506.31;;;41.79;23.18
61963;BME280;47927;42.646;23.096;2023-07-16T10:44:45;92500.31;;;41.09;24.29
61963;BME280;47927;42.646;23.096;2023-07-16T10:47:30;92496.53;;;40.82;23.48
61963;BME280;47927;42.646;23.096;2023-07-16T10:49:56;92497.22;;;40.28;25.88
61963;BME280;47927;42.646;23.096;2023-07-16T10:52:23;92493.59;;;39.74;25.25
61963;BME280;47927;42.646;23.096;2023-07-16T10:54:50;92499.03;;;39.02;26.13
61963;BME280;47927;42.646;23.096;2023-07-16T10:57:17;92489.19;;;38.28;26.23
61963;BME280;47927;42.646;23.096;2023-07-16T10:59:45;92486.16;;;38.32;28.33
61963;BME280;47927;42.646;23.096;2023-07-16T11:02:12;92486.88;;;38.11;26.60
61963;BME280;47927;42.646;23.096;2023-07-16T11:04:38;92487.44;;;37.35;28.28
61963;BME280;47927;42.646;23.096;2023-07-16T11:07:13;92493.31;;;37.87;27.95
61963;BME280;47927;42.646;23.096;2023-07-16T11:09:50;92493.06;;;37.51;27.81
61963;BME280;47927;42.646;23.096;2023-07-16T11:12:18;92485.66;;;36.85;28.10
61963;BME280;47927;42.646;23.096;2023-07-16T11:14:46;92477.53;;;36.39;29.56
61963;BME280;47927;42.646;23.096;2023-07-16T11:17:12;92480.75;;;36.38;28.63
61963;BME280;47927;42.646;23.096;2023-07-16T11:19:39;92470.28;;;36.15;28.87
61963;BME280;47927;42.646;23.096;2023-07-16T11:22:07;92481.34;;;35.98;28.61
61963;BME280;47927;42.646;23.096;2023-07-16T11:24:50;92476.09;;;36.06;28.63
61963;BME280;47927;42.646;23.096;2023-07-16T11:27:34;92480.34;;;36.47;28.52
61963;BME280;47927;42.646;23.096;2023-07-16T11:30:00;92466.22;;;35.52;27.52
61963;BME280;47927;42.646;23.096;2023-07-16T11:35:02;92475.38;;;36.19;28.17
61963;BME280;47927;42.646;23.096;2023-07-16T11:37:30;92469.75;;;36.17;28.25
61963;BME280;47927;42.646;23.096;2023-07-16T11:40:07;92457.28;;;36.40;27.46
61963;BME280;47927;42.646;23.096;2023-07-16T11:42:35;92470.50;;;36.17;27.09
61963;BME280;47927;42.646;23.096;2023-07-16T11:45:02;92460.41;;;35.80;26.43
61963;BME280;47927;42.646;23.096;2023-07-16T11:47:28;92458.34;;;35.29;25.82
61963;BME280;47927;42.646;23.096;2023-07-16T11:49:54;92465.97;;;36.07;26.73
61963;BME280;47927;42.646;23.096;2023-07-16T11:52:24;92477.78;;;36.22;26.14
61963;BME280;47927;42.646;23.096;2023-07-16T11:54:51;92465.28;;;36.78;25.38
61963;BME280;47927;42.646;23.096;2023-07-16T11:57:17;92473.34;;;36.84;26.06
61963;BME280;47927;42.646;23.096;2023-07-16T11:59:43;92463.84;;;36.90;26.02
61963;BME280;47927;42.646;23.096;2023-07-16T12:02:09;92466.84;;;36.15;25.24
61963;BME280;47927;42.646;23.096;2023-07-16T12:04:34;92437.41;;;36.19;24.77
61963;BME280;47927;42.646;23.096;2023-07-16T12:07:00;92458.41;;;36.77;23.34
61963;BME280;47927;42.646;23.096;2023-07-16T12:09:25;92455.81;;;37.11;24.70
61963;BME280;47927;42.646;23.096;2023-07-16T12:11:51;92458.00;;;36.86;24.46
61963;BME280;47927;42.646;23.096;2023-07-16T12:14:16;92456.84;;;36.68;25.04
61963;BME280;47927;42.646;23.096;2023-07-16T12:16:42;92461.31;;;36.20;25.27
61963;BME280;47927;42.646;23.096;2023-07-16T12:19:08;92459.81;;;36.06;26.61
61963;BME280;47927;42.646;23.096;2023-07-16T12:21:35;92457.53;;;35.91;25.70
61963;BME280;47927;42.646;23.096;2023-07-16T12:24:00;92453.59;;;36.24;25.57
61963;BME280;47927;42.646;23.096;2023-07-16T12:26:26;92450.16;;;36.56;23.61
61963;BME280;47927;42.646;23.096;2023-07-16T12:28:51;92453.03;;;36.45;25.37
61963;BME280;47927;42.646;23.096;2023-07-16T12:31:17;92456.34;;;35.73;24.66
61963;BME280;47927;42.646;23.096;2023-07-16T12:33:43;92449.84;;;35.95;26.35
61963;BME280;47927;42.646;23.096;2023-07-16T12:36:09;92457.91;;;35.25;27.46
61963;BME280;47927;42.646;23.096;2023-07-16T12:38:34;92454.34;;;34.68;28.21
61963;BME280;47927;42.646;23.096;2023-07-16T12:41:00;92463.09;;;34.49;28.59
61963;BME280;47927;42.646;23.096;2023-07-16T12:43:25;92454.69;;;35.08;27.02
61963;BME280;47927;42.646;23.096;2023-07-16T12:45:51;92450.75;;;35.47;27.69
61963;BME280;47927;42.646;23.096;2023-07-16T12:48:17;92447.97;;;34.65;27.41
61963;BME280;47927;42.646;23.096;2023-07-16T12:50:42;92455.34;;;34.89;28.07
61963;BME280;47927;42.646;23.096;2023-07-16T12:53:08;92456.81;;;35.15;28.10
61963;BME280;47927;42.646;23.096;2023-07-16T12:55:33;92456.56;;;35.13;28.48
61963;BME280;47927;42.646;23.096;2023-07-16T12:57:59;92454.19;;;35.28;27.97